Time;durP1;ratioP1;P1;durP2;ratioP2;P2;SDS_P1;SDS_P2;PMS_P1;PMS_P2;Temp;Humidity;BMP_temperature;BMP_pressure;BME280_temperature;BME280_humidity;BME280_pressure;Samples;Min_cycle;Max_cycle;Signal;HPM_P1;HPM_P2
2022/10/27 00:01:19;;;;;;;53.50;27.23;;;;;;;;;;5030147;28;20195;-70
2022/10/27 00:03:50;;;;;;;56.33;27.70;;;;;;;;;;5028149;28;20195;-70
2022/10/27 00:06:17;;;;;;;51.80;27.40;;;;;;;;;;5028360;28;20222;-69
2022/10/27 00:08:43;;;;;;;54.40;26.57;;;;;;;;;;5028761;28;20191;-69
2022/10/27 00:11:10;;;;;;;48.60;26.27;;;;;;;;;;5029614;28;20658;-70
2022/10/27 00:13:37;;;;;;;47.70;26.30;;;;;;;;;;5029733;28;20588;-69
2022/10/27 00:16:08;;;;;;;45.53;24.67;;;;;;;;;;5027791;28;20222;-70
2022/10/27 00:18:35;;;;;;;42.53;24.30;;;;;;;;;;5012027;28;20199;-69
2022/10/27 00:21:07;;;;;;;42.60;23.97;;;;;;;;;;5029570;28;20190;-70
2022/10/27 00:23:34;;;;;;;44.17;24.37;;;;;;;;;;5029277;28;20198;-70
2022/10/27 00:26:00;;;;;;;42.60;24.03;;;;;;;;;;5011366;28;20590;-70
2022/10/27 00:28:27;;;;;;;46.03;24.87;;;;;;;;;;5029327;28;20210;-70
2022/10/27 00:31:01;;;;;;;47.57;24.07;;;;;;;;;;5011951;28;20187;-70
2022/10/27 00:33:27;;;;;;;46.63;24.33;;;;;;;;;;5029010;28;20191;-70
2022/10/27 00:35:54;;;;;;;46.57;25.07;;;;;;;;;;5029365;28;20218;-70
2022/10/27 00:38:21;;;;;;;44.87;23.77;;;;;;;;;;5029192;28;20186;-70
2022/10/27 00:40:48;;;;;;;45.23;24.53;;;;;;;;;;5011243;28;20543;-69
2022/10/27 00:43:41;;;;;;;38.03;22.67;;;;;;;;;;5011750;28;20198;-70
2022/10/27 00:46:17;;;;;;;39.57;22.97;;;;;;;;;;5025128;28;20211;-69
2022/10/27 00:48:44;;;;;;;34.63;21.37;;;;;;;;;;5028953;28;20215;-69
2022/10/27 00:51:11;;;;;;;34.20;20.87;;;;;;;;;;5011769;28;20662;-71
2022/10/27 00:53:38;;;;;;;32.23;20.27;;;;;;;;;;5011587;28;20194;-69
2022/10/27 00:56:04;;;;;;;30.53;19.23;;;;;;;;;;5011671;28;20223;-69
2022/10/27 00:58:31;;;;;;;32.43;20.73;;;;;;;;;;5011583;28;20278;-70
2022/10/27 01:00:58;;;;;;;33.33;20.73;;;;;;;;;;5011606;28;20675;-69
2022/10/27 01:03:25;;;;;;;35.43;21.37;;;;;;;;;;5011401;28;20198;-70
2022/10/27 01:05:51;;;;;;;31.87;20.40;;;;;;;;;;5027963;28;20191;-70
2022/10/27 01:08:18;;;;;;;36.13;21.37;;;;;;;;;;5028734;28;20196;-70
2022/10/27 01:10:45;;;;;;;32.03;20.30;;;;;;;;;;5028026;28;20191;-69
2022/10/27 01:13:12;;;;;;;33.07;19.23;;;;;;;;;;5029096;28;20865;-70
2022/10/27 01:15:49;;;;;;;31.90;20.73;;;;;;;;;;5015050;28;20226;-69
2022/10/27 01:18:35;;;;;;;31.67;19.97;;;;;;;;;;5011528;28;20671;-70
2022/10/27 01:21:20;;;;;;;30.57;19.00;;;;;;;;;;5028808;28;20191;-70
2022/10/27 01:23:56;;;;;;;46.93;16.70;;;;;;;;;;5028868;28;20271;-69
2022/10/27 01:26:28;;;;;;;30.83;19.40;;;;;;;;;;5028758;28;20194;-70
2022/10/27 01:29:30;;;;;;;34.20;19.37;;;;;;;;;;5030411;28;20226;-70
2022/10/27 01:31:57;;;;;;;35.53;20.97;;;;;;;;;;4932589;29;20203;-69
2022/10/27 01:34:24;;;;;;;35.73;20.77;;;;;;;;;;5012726;28;20605;-69
2022/10/27 01:36:56;;;;;;;33.67;20.10;;;;;;;;;;5031148;28;20219;-69
2022/10/27 01:39:26;;;;;;;34.23;19.70;;;;;;;;;;5014659;28;20199;-70
2022/10/27 01:42:13;;;;;;;30.57;19.37;;;;;;;;;;5015144;28;20192;-69
2022/10/27 01:44:40;;;;;;;32.00;19.83;;;;;;;;;;5014835;28;20180;-69
2022/10/27 01:47:08;;;;;;;36.40;21.57;;;;;;;;;;5014584;28;20191;-69
2022/10/27 01:49:36;;;;;;;36.17;21.63;;;;;;;;;;5014224;28;20645;-69
2022/10/27 01:52:03;;;;;;;38.00;22.80;;;;;;;;;;5031995;28;20191;-69
2022/10/27 01:54:30;;;;;;;36.60;21.37;;;;;;;;;;5021325;28;20191;-70
2022/10/27 01:56:56;;;;;;;36.53;22.00;;;;;;;;;;5034386;28;20206;-69
2022/10/27 01:59:42;;;;;;;40.27;22.37;;;;;;;;;;5051703;28;20190;-69
2022/10/27 02:02:15;;;;;;;35.80;21.60;;;;;;;;;;5051830;28;20662;-69
2022/10/27 02:04:44;;;;;;;34.20;21.03;;;;;;;;;;5020092;28;20195;-69
2022/10/27 02:07:12;;;;;;;29.87;18.03;;;;;;;;;;5034811;28;20564;-69
2022/10/27 02:09:39;;;;;;;30.27;19.30;;;;;;;;;;5027362;28;20215;-69
2022/10/27 02:12:08;;;;;;;27.07;17.93;;;;;;;;;;5011798;28;20184;-70
2022/10/27 02:14:37;;;;;;;28.70;17.90;;;;;;;;;;5027377;28;20192;-69
2022/10/27 02:17:04;;;;;;;25.47;16.60;;;;;;;;;;5011707;28;20567;-70
2022/10/27 02:19:34;;;;;;;32.97;17.60;;;;;;;;;;5012432;28;20276;-69
2022/10/27 02:22:01;;;;;;;28.83;17.43;;;;;;;;;;5026940;28;20192;-69
2022/10/27 02:24:28;;;;;;;32.23;19.43;;;;;;;;;;5029537;28;20199;-69
2022/10/27 02:26:58;;;;;;;25.87;16.67;;;;;;;;;;5014229;28;20659;-69
2022/10/27 02:29:31;;;;;;;29.63;16.87;;;;;;;;;;5031441;28;20199;-69
2022/10/27 02:31:58;;;;;;;42.40;16.33;;;;;;;;;;5010501;28;20582;-68
2022/10/27 02:34:25;;;;;;;207.20;22.83;;;;;;;;;;5030664;28;20191;-69
2022/10/27 02:36:52;;;;;;;174.37;20.53;;;;;;;;;;5030258;28;20631;-69
2022/10/27 02:39:19;;;;;;;245.13;22.13;;;;;;;;;;5030356;28;20206;-69
2022/10/27 02:41:46;;;;;;;28.13;15.10;;;;;;;;;;5003738;28;20272;-69
2022/10/27 02:44:13;;;;;;;26.10;16.03;;;;;;;;;;5029846;28;20197;-69
2022/10/27 02:46:39;;;;;;;26.20;15.10;;;;;;;;;;5031436;28;20188;-69
2022/10/27 02:49:10;;;;;;;24.57;15.10;;;;;;;;;;5013312;28;20215;-68
2022/10/27 02:51:37;;;;;;;24.13;15.53;;;;;;;;;;5029405;28;20241;-69
2022/10/27 02:54:04;;;;;;;37.83;17.33;;;;;;;;;;5030815;28;20227;-69
2022/10/27 02:56:30;;;;;;;27.80;15.53;;;;;;;;;;5030141;28;20204;-69
2022/10/27 02:58:57;;;;;;;36.40;15.43;;;;;;;;;;5030989;28;20203;-68
2022/10/27 03:01:24;;;;;;;29.20;15.17;;;;;;;;;;5014174;28;20570;-69
2022/10/27 03:03:51;;;;;;;36.57;15.47;;;;;;;;;;5030858;28;20677;-69
2022/10/27 03:06:18;;;;;;;23.57;13.53;;;;;;;;;;5030441;28;20184;-69
2022/10/27 03:08:44;;;;;;;32.70;14.97;;;;;;;;;;5030755;28;20199;-69
2022/10/27 03:11:11;;;;;;;22.07;14.07;;;;;;;;;;5027644;28;20202;-69
2022/10/27 03:13:38;;;;;;;20.87;12.87;;;;;;;;;;5029475;28;20198;-69
2022/10/27 03:16:05;;;;;;;20.50;12.90;;;;;;;;;;5026308;28;20219;-70
2022/10/27 03:18:32;;;;;;;19.97;13.07;;;;;;;;;;5021162;28;20282;-68
2022/10/27 03:20:59;;;;;;;26.67;16.00;;;;;;;;;;5024305;28;20242;-72
2022/10/27 03:23:25;;;;;;;21.37;13.57;;;;;;;;;;5029504;28;20194;-73
2022/10/27 03:25:52;;;;;;;29.77;16.87;;;;;;;;;;5031513;28;20187;-69
2022/10/27 03:28:26;;;;;;;32.77;19.03;;;;;;;;;;5034187;28;20296;-69
2022/10/27 03:30:52;;;;;;;67.97;23.63;;;;;;;;;;5035294;28;20183;-69
2022/10/27 03:33:19;;;;;;;77.37;25.87;;;;;;;;;;5027529;28;20206;-69
2022/10/27 03:35:46;;;;;;;93.53;26.63;;;;;;;;;;5028240;28;20231;-72
2022/10/27 03:38:13;;;;;;;81.07;25.07;;;;;;;;;;5033849;28;20604;-69
2022/10/27 03:40:40;;;;;;;82.83;24.50;;;;;;;;;;5035431;28;20199;-72
2022/10/27 03:43:07;;;;;;;119.37;26.13;;;;;;;;;;5030579;28;20269;-72
2022/10/27 03:45:34;;;;;;;117.13;26.30;;;;;;;;;;5021580;28;20203;-72
2022/10/27 03:48:01;;;;;;;107.77;27.40;;;;;;;;;;5031179;28;20226;-69
2022/10/27 03:50:28;;;;;;;108.07;29.00;;;;;;;;;;5029551;28;20626;-71
2022/10/27 03:52:55;;;;;;;134.13;30.47;;;;;;;;;;5020798;28;20562;-70
2022/10/27 03:55:22;;;;;;;106.03;30.03;;;;;;;;;;5030140;28;20275;-69
2022/10/27 03:57:49;;;;;;;139.57;30.53;;;;;;;;;;5010858;28;20800;-72
2022/10/27 04:00:16;;;;;;;156.57;31.80;;;;;;;;;;5023239;28;20193;-69
2022/10/27 04:02:43;;;;;;;106.80;31.80;;;;;;;;;;5022114;28;20198;-70
2022/10/27 04:05:10;;;;;;;190.57;34.27;;;;;;;;;;5031187;28;20210;-69
2022/10/27 04:07:37;;;;;;;127.70;33.70;;;;;;;;;;5028925;28;20205;-70
2022/10/27 04:10:04;;;;;;;164.37;34.30;;;;;;;;;;5030054;28;20298;-69
2022/10/27 04:12:31;;;;;;;100.27;32.30;;;;;;;;;;5021579;28;20207;-69
2022/10/27 04:14:58;;;;;;;81.97;30.70;;;;;;;;;;5033922;28;20183;-69
2022/10/27 04:17:25;;;;;;;109.50;31.00;;;;;;;;;;5028361;28;20875;-70
2022/10/27 04:19:51;;;;;;;89.53;30.40;;;;;;;;;;5028130;28;20188;-70
2022/10/27 04:22:18;;;;;;;96.47;31.63;;;;;;;;;;5029143;28;20197;-70
2022/10/27 04:24:45;;;;;;;99.07;31.77;;;;;;;;;;5022009;28;20238;-68
2022/10/27 04:27:12;;;;;;;85.43;31.03;;;;;;;;;;5030953;28;20330;-68
2022/10/27 04:29:43;;;;;;;75.90;30.40;;;;;;;;;;5033516;28;20206;-71
2022/10/27 04:32:10;;;;;;;73.77;29.90;;;;;;;;;;5028282;28;20202;-71
2022/10/27 04:34:37;;;;;;;61.57;30.43;;;;;;;;;;5005238;28;20302;-72
2022/10/27 04:37:04;;;;;;;57.83;27.43;;;;;;;;;;5022075;28;20222;-73
2022/10/27 04:39:31;;;;;;;64.60;29.40;;;;;;;;;;5030659;28;20202;-73
2022/10/27 04:41:58;;;;;;;66.83;29.53;;;;;;;;;;5030558;28;20973;-71
2022/10/27 04:44:25;;;;;;;81.23;26.90;;;;;;;;;;5010160;28;20289;-71
2022/10/27 04:46:51;;;;;;;66.97;26.63;;;;;;;;;;5046842;28;20183;-70
2022/10/27 04:49:18;;;;;;;65.80;27.90;;;;;;;;;;5016207;28;20225;-70
2022/10/27 04:51:45;;;;;;;67.63;26.87;;;;;;;;;;5020496;28;20224;-70
2022/10/27 04:54:12;;;;;;;67.60;26.57;;;;;;;;;;5010791;28;20227;-70
2022/10/27 04:56:39;;;;;;;61.93;24.00;;;;;;;;;;5050942;28;20206;-70
2022/10/27 04:59:05;;;;;;;97.03;25.97;;;;;;;;;;5050613;28;20194;-70
2022/10/27 05:01:32;;;;;;;111.97;25.57;;;;;;;;;;5044890;28;20199;-70
2022/10/27 05:04:00;;;;;;;75.20;25.00;;;;;;;;;;5026253;28;20273;-70
2022/10/27 05:06:26;;;;;;;80.83;23.87;;;;;;;;;;5039106;28;20187;-70
2022/10/27 05:08:53;;;;;;;56.37;23.27;;;;;;;;;;5031076;28;20195;-69
2022/10/27 05:11:26;;;;;;;82.40;24.23;;;;;;;;;;5026228;28;20249;-72
2022/10/27 05:13:52;;;;;;;103.40;25.03;;;;;;;;;;5032261;28;20176;-73
2022/10/27 05:16:19;;;;;;;87.10;24.63;;;;;;;;;;5033717;28;20239;-74
2022/10/27 05:18:46;;;;;;;84.47;24.27;;;;;;;;;;5037236;28;20210;-71
2022/10/27 05:21:13;;;;;;;62.47;22.87;;;;;;;;;;5031832;28;20215;-71
2022/10/27 05:23:40;;;;;;;68.30;23.60;;;;;;;;;;5030814;28;20192;-70
2022/10/27 05:26:12;;;;;;;70.03;24.00;;;;;;;;;;5034718;28;20558;-70
2022/10/27 05:28:42;;;;;;;57.40;22.17;;;;;;;;;;5035433;28;20210;-69
2022/10/27 05:31:10;;;;;;;74.47;23.43;;;;;;;;;;5007828;28;20600;-68
2022/10/27 05:33:37;;;;;;;72.97;22.87;;;;;;;;;;5027997;28;20266;-69
2022/10/27 05:36:04;;;;;;;67.63;23.03;;;;;;;;;;5030751;28;20179;-71
2022/10/27 05:38:30;;;;;;;62.93;24.33;;;;;;;;;;5015112;28;20555;-71
2022/10/27 05:40:57;;;;;;;47.63;22.67;;;;;;;;;;5030351;28;20205;-70
2022/10/27 05:43:24;;;;;;;41.80;22.60;;;;;;;;;;5033255;28;20187;-70
2022/10/27 05:45:51;;;;;;;52.70;23.40;;;;;;;;;;5033082;28;20187;-70
2022/10/27 05:50:13;;;;;;;61.77;21.70;;;;;;;;;;5107815;27;20519;-71
2022/10/27 05:52:57;;;;;;;45.07;18.47;;;;;;;;;;5087173;28;20169;-70
2022/10/27 05:55:24;;;;;;;43.77;20.90;;;;;;;;;;5083226;28;20189;-70
2022/10/27 05:57:52;;;;;;;48.23;20.30;;;;;;;;;;5088995;28;20197;-73
2022/10/27 06:00:19;;;;;;;53.13;22.27;;;;;;;;;;5092619;28;20193;-69
2022/10/27 06:02:48;;;;;;;57.00;22.30;;;;;;;;;;5093752;28;20188;-76
2022/10/27 06:05:15;;;;;;;67.43;22.63;;;;;;;;;;5082310;28;20189;-73
2022/10/27 06:07:42;;;;;;;60.63;22.63;;;;;;;;;;5093888;28;20193;-74
2022/10/27 06:10:09;;;;;;;67.97;23.73;;;;;;;;;;5086495;28;20225;-73
2022/10/27 06:12:37;;;;;;;49.07;22.33;;;;;;;;;;5090062;28;20224;-74
2022/10/27 06:15:04;;;;;;;56.30;22.87;;;;;;;;;;5091742;28;20190;-74
2022/10/27 06:17:31;;;;;;;43.40;21.27;;;;;;;;;;5090785;28;20227;-77
2022/10/27 06:19:58;;;;;;;80.73;23.83;;;;;;;;;;5091577;28;20185;-76
2022/10/27 06:22:25;;;;;;;65.67;22.67;;;;;;;;;;5090169;28;20188;-72
2022/10/27 06:24:54;;;;;;;60.37;23.70;;;;;;;;;;5091090;28;20192;-77
2022/10/27 06:27:21;;;;;;;57.83;23.50;;;;;;;;;;5082545;28;21036;-72
2022/10/27 06:29:49;;;;;;;54.07;22.97;;;;;;;;;;5044308;28;20242;-77
2022/10/27 06:32:16;;;;;;;53.87;22.97;;;;;;;;;;5048479;28;20316;-76
2022/10/27 06:34:43;;;;;;;45.27;22.07;;;;;;;;;;5049057;28;20191;-73
2022/10/27 06:37:10;;;;;;;40.43;21.50;;;;;;;;;;5046903;28;20313;-73
2022/10/27 06:39:40;;;;;;;38.23;22.17;;;;;;;;;;5047160;28;20194;-68
2022/10/27 06:42:07;;;;;;;40.67;21.00;;;;;;;;;;5046720;28;20183;-72
2022/10/27 06:44:33;;;;;;;38.97;21.33;;;;;;;;;;5048329;28;20193;-72
2022/10/27 06:47:03;;;;;;;39.70;22.10;;;;;;;;;;5044837;28;20198;-70
2022/10/27 06:49:30;;;;;;;36.70;22.47;;;;;;;;;;5049566;28;20226;-71
2022/10/27 06:51:59;;;;;;;32.00;21.23;;;;;;;;;;5039801;28;20248;-73
2022/10/27 06:54:26;;;;;;;31.13;20.00;;;;;;;;;;5051322;28;20213;-74
2022/10/27 06:56:53;;;;;;;33.60;21.07;;;;;;;;;;5042566;28;20205;-70
2022/10/27 06:59:20;;;;;;;38.93;21.77;;;;;;;;;;5052624;28;20456;-72
2022/10/27 07:01:47;;;;;;;31.53;21.27;;;;;;;;;;5026710;28;20199;-71
2022/10/27 07:04:14;;;;;;;31.73;20.57;;;;;;;;;;5016197;28;20540;-70
2022/10/27 07:06:41;;;;;;;30.33;19.70;;;;;;;;;;5029678;28;20199;-78
2022/10/27 07:09:10;;;;;;;29.83;19.83;;;;;;;;;;5045249;28;20219;-68
2022/10/27 07:11:37;;;;;;;29.53;19.37;;;;;;;;;;5027159;28;20594;-69
2022/10/27 07:14:03;;;;;;;32.03;19.97;;;;;;;;;;5027123;28;20713;-73
2022/10/27 07:16:30;;;;;;;29.80;19.83;;;;;;;;;;5036637;28;20282;-70
2022/10/27 07:19:00;;;;;;;29.53;20.33;;;;;;;;;;5034613;28;20680;-73
2022/10/27 07:21:28;;;;;;;29.73;18.80;;;;;;;;;;5028386;28;20200;-69
2022/10/27 07:23:55;;;;;;;28.70;19.43;;;;;;;;;;5033852;28;20199;-71
2022/10/27 07:26:22;;;;;;;26.13;18.23;;;;;;;;;;5038548;28;20187;-70
2022/10/27 07:28:49;;;;;;;21.83;16.70;;;;;;;;;;5035628;28;20317;-72
2022/10/27 07:31:16;;;;;;;20.70;15.77;;;;;;;;;;5018016;28;20199;-72
2022/10/27 07:33:43;;;;;;;21.70;15.37;;;;;;;;;;5055524;28;21528;-69
2022/10/27 07:36:09;;;;;;;15.80;13.50;;;;;;;;;;5052492;28;20201;-71
2022/10/27 07:38:37;;;;;;;18.83;14.43;;;;;;;;;;5047472;28;20191;-70
2022/10/27 07:41:04;;;;;;;18.47;14.03;;;;;;;;;;5046503;28;20282;-69
2022/10/27 07:43:31;;;;;;;16.80;13.43;;;;;;;;;;5047186;28;20597;-71
2022/10/27 07:46:01;;;;;;;19.83;14.50;;;;;;;;;;5046151;28;20197;-70
2022/10/27 07:48:27;;;;;;;20.60;14.30;;;;;;;;;;5053175;28;20226;-71
2022/10/27 07:50:54;;;;;;;18.87;13.60;;;;;;;;;;5052319;28;20223;-71
2022/10/27 07:53:21;;;;;;;19.70;14.23;;;;;;;;;;5051137;28;20209;-71
2022/10/27 07:55:48;;;;;;;20.37;14.43;;;;;;;;;;5054609;28;20202;-71
2022/10/27 07:58:15;;;;;;;19.17;15.17;;;;;;;;;;5050060;28;20195;-74
2022/10/27 08:00:43;;;;;;;19.17;14.23;;;;;;;;;;5048412;28;20708;-73
2022/10/27 08:03:10;;;;;;;19.77;14.37;;;;;;;;;;5029088;28;20190;-70
2022/10/27 08:05:37;;;;;;;16.20;13.13;;;;;;;;;;5048533;28;20194;-70
2022/10/27 08:08:04;;;;;;;14.77;12.43;;;;;;;;;;5052390;28;20204;-71
2022/10/27 08:10:32;;;;;;;16.17;13.00;;;;;;;;;;5051517;28;20218;-68
2022/10/27 08:12:59;;;;;;;16.30;12.63;;;;;;;;;;5049126;28;20183;-70
2022/10/27 08:15:26;;;;;;;18.57;13.63;;;;;;;;;;5051223;28;20269;-69
2022/10/27 08:17:54;;;;;;;18.40;13.47;;;;;;;;;;5047135;28;20207;-72
2022/10/27 08:20:21;;;;;;;16.97;12.93;;;;;;;;;;5055892;28;20186;-71
2022/10/27 08:22:57;;;;;;;16.97;13.30;;;;;;;;;;5052413;28;20818;-69
2022/10/27 08:25:24;;;;;;;18.97;13.63;;;;;;;;;;5052195;28;20244;-70
2022/10/27 08:27:50;;;;;;;19.40;13.97;;;;;;;;;;5047219;28;20236;-69
2022/10/27 08:30:19;;;;;;;25.10;14.77;;;;;;;;;;5053865;28;20222;-69
2022/10/27 08:32:48;;;;;;;20.50;14.40;;;;;;;;;;5054483;28;20236;-73
2022/10/27 08:35:16;;;;;;;19.17;13.97;;;;;;;;;;5023161;28;20238;-72
2022/10/27 08:37:43;;;;;;;24.10;15.17;;;;;;;;;;5045045;28;20206;-74
2022/10/27 08:40:10;;;;;;;22.27;16.20;;;;;;;;;;5053797;28;20821;-70
2022/10/27 08:42:40;;;;;;;24.53;16.40;;;;;;;;;;5053256;28;20226;-70
2022/10/27 08:45:08;;;;;;;18.83;15.13;;;;;;;;;;5049999;28;20194;-74
2022/10/27 08:47:35;;;;;;;20.87;15.40;;;;;;;;;;5046940;28;20278;-73
2022/10/27 08:50:09;;;;;;;22.23;15.07;;;;;;;;;;5048349;28;20238;-69
2022/10/27 08:52:40;;;;;;;21.70;16.10;;;;;;;;;;5048652;28;20200;-72
2022/10/27 08:55:13;;;;;;;21.73;15.33;;;;;;;;;;5046547;28;20661;-73
2022/10/27 08:57:45;;;;;;;21.50;15.90;;;;;;;;;;5031901;28;20202;-72
2022/10/27 09:00:12;;;;;;;19.80;15.00;;;;;;;;;;5053309;28;20269;-72
2022/10/27 09:02:50;;;;;;;23.47;14.67;;;;;;;;;;5051103;28;20194;-72
2022/10/27 09:05:24;;;;;;;20.70;14.60;;;;;;;;;;5034292;28;20190;-72
2022/10/27 09:07:54;;;;;;;21.03;15.63;;;;;;;;;;5051049;28;20283;-70
2022/10/27 09:10:30;;;;;;;22.33;15.03;;;;;;;;;;5052831;28;20779;-72
2022/10/27 09:13:19;;;;;;;18.07;14.47;;;;;;;;;;5049692;28;20195;-70
2022/10/27 09:15:46;;;;;;;19.63;14.50;;;;;;;;;;5047348;28;20195;-71
2022/10/27 09:18:13;;;;;;;19.97;14.50;;;;;;;;;;5043517;28;20199;-70
2022/10/27 09:20:47;;;;;;;19.77;15.07;;;;;;;;;;5054458;28;20191;-73
2022/10/27 09:23:22;;;;;;;21.50;14.10;;;;;;;;;;5047569;28;20197;-70
2022/10/27 09:25:51;;;;;;;19.43;14.13;;;;;;;;;;5053894;28;20210;-71
2022/10/27 09:28:27;;;;;;;21.70;14.33;;;;;;;;;;5040200;28;20600;-72
2022/10/27 09:30:53;;;;;;;19.70;14.83;;;;;;;;;;5057187;28;20213;-74
2022/10/27 09:33:21;;;;;;;19.43;14.13;;;;;;;;;;5027707;28;20195;-71
2022/10/27 09:35:48;;;;;;;19.17;14.23;;;;;;;;;;5040289;28;20195;-69
2022/10/27 09:38:16;;;;;;;18.73;14.60;;;;;;;;;;5062263;28;20237;-70
2022/10/27 09:40:43;;;;;;;20.30;15.13;;;;;;;;;;5050251;28;20646;-71
2022/10/27 09:43:10;;;;;;;22.60;16.97;;;;;;;;;;5045997;28;20183;-69
2022/10/27 09:45:37;;;;;;;21.80;16.83;;;;;;;;;;5052888;28;20186;-69
2022/10/27 09:48:05;;;;;;;22.00;16.70;;;;;;;;;;5045191;28;20837;-71
2022/10/27 09:50:35;;;;;;;20.80;15.27;;;;;;;;;;5051854;28;20232;-71
2022/10/27 09:53:02;;;;;;;18.57;14.37;;;;;;;;;;5048351;28;20553;-71
2022/10/27 09:55:48;;;;;;;17.80;14.33;;;;;;;;;;5051861;28;20191;-73
2022/10/27 09:58:16;;;;;;;20.13;13.80;;;;;;;;;;5046526;28;20719;-73
2022/10/27 10:00:42;;;;;;;18.30;13.57;;;;;;;;;;5051087;28;20204;-74
2022/10/27 10:03:20;;;;;;;17.27;13.27;;;;;;;;;;5028744;28;20842;-73
2022/10/27 10:06:07;;;;;;;17.00;13.33;;;;;;;;;;5051078;28;20205;-72
2022/10/27 10:08:35;;;;;;;16.07;12.70;;;;;;;;;;5069632;28;20718;-72
2022/10/27 10:11:06;;;;;;;19.70;13.20;;;;;;;;;;5054102;28;20237;-72
2022/10/27 10:13:33;;;;;;;15.53;12.00;;;;;;;;;;5038396;28;20198;-71
2022/10/27 10:16:03;;;;;;;19.07;12.93;;;;;;;;;;5048966;28;20186;-71
2022/10/27 10:18:31;;;;;;;13.10;9.53;;;;;;;;;;5049370;28;20203;-71
2022/10/27 10:20:58;;;;;;;14.63;9.57;;;;;;;;;;5056424;28;20198;-67
2022/10/27 10:23:25;;;;;;;12.47;9.10;;;;;;;;;;5047714;28;20209;-69
2022/10/27 10:25:53;;;;;;;13.53;8.70;;;;;;;;;;5050003;28;20188;-72
2022/10/27 10:28:20;;;;;;;10.90;8.73;;;;;;;;;;5043850;28;20217;-73
2022/10/27 10:30:48;;;;;;;13.60;8.90;;;;;;;;;;5050160;28;20215;-71
2022/10/27 10:33:15;;;;;;;13.00;9.20;;;;;;;;;;5047991;28;20203;-72
2022/10/27 10:35:43;;;;;;;13.30;9.23;;;;;;;;;;5056350;28;20193;-74
2022/10/27 10:38:29;;;;;;;13.77;9.07;;;;;;;;;;5046521;28;20238;-71
2022/10/27 10:41:02;;;;;;;12.13;9.27;;;;;;;;;;5054121;28;20231;-73
2022/10/27 10:43:29;;;;;;;15.83;10.03;;;;;;;;;;5057523;28;20205;-70
2022/10/27 10:45:56;;;;;;;13.40;10.07;;;;;;;;;;5050341;28;20193;-72
2022/10/27 10:48:29;;;;;;;15.67;10.27;;;;;;;;;;5054990;28;20663;-69
2022/10/27 10:50:56;;;;;;;13.67;10.73;;;;;;;;;;5053828;28;20218;-72
2022/10/27 10:53:23;;;;;;;13.60;10.20;;;;;;;;;;5065020;28;20194;-73
2022/10/27 10:55:57;;;;;;;17.00;11.13;;;;;;;;;;5070595;28;20194;-72
2022/10/27 10:58:24;;;;;;;13.93;10.60;;;;;;;;;;5049034;28;20653;-71
2022/10/27 11:00:55;;;;;;;14.73;10.90;;;;;;;;;;5028225;28;20208;-72
2022/10/27 11:03:23;;;;;;;14.57;10.07;;;;;;;;;;5012649;28;20743;-71
2022/10/27 11:05:57;;;;;;;14.20;10.83;;;;;;;;;;5027984;28;20542;-70
2022/10/27 11:08:45;;;;;;;15.73;11.03;;;;;;;;;;5029529;28;20615;-70
2022/10/27 11:11:13;;;;;;;12.63;10.20;;;;;;;;;;5036993;28;20246;-70
2022/10/27 11:13:45;;;;;;;14.50;11.00;;;;;;;;;;5050992;28;20183;-71
2022/10/27 11:16:12;;;;;;;17.37;11.20;;;;;;;;;;5048251;28;20195;-72
2022/10/27 11:18:44;;;;;;;16.00;11.63;;;;;;;;;;5032106;28;20186;-72
2022/10/27 11:21:20;;;;;;;14.77;11.27;;;;;;;;;;5044350;28;21757;-70
2022/10/27 11:23:48;;;;;;;15.90;10.70;;;;;;;;;;5038125;28;20191;-70
2022/10/27 11:26:16;;;;;;;17.97;11.03;;;;;;;;;;5059710;28;20186;-69
2022/10/27 11:28:55;;;;;;;16.07;11.00;;;;;;;;;;5049541;28;20194;-72
2022/10/27 11:31:22;;;;;;;14.20;11.53;;;;;;;;;;5045513;28;20215;-72
2022/10/27 11:33:56;;;;;;;16.10;11.00;;;;;;;;;;5047986;28;20233;-71
2022/10/27 11:36:32;;;;;;;16.40;10.90;;;;;;;;;;5051599;28;20190;-71
2022/10/27 11:39:06;;;;;;;15.20;10.67;;;;;;;;;;5042700;28;20829;-71
2022/10/27 11:41:41;;;;;;;13.10;11.00;;;;;;;;;;5055087;28;20259;-72
2022/10/27 11:44:26;;;;;;;15.67;10.50;;;;;;;;;;5049867;28;20214;-70
2022/10/27 11:46:54;;;;;;;18.50;11.83;;;;;;;;;;5048699;28;20293;-71
2022/10/27 11:49:23;;;;;;;17.13;10.23;;;;;;;;;;5058973;28;20237;-70
2022/10/27 11:51:59;;;;;;;13.67;11.17;;;;;;;;;;5053309;28;20215;-73
2022/10/27 11:54:26;;;;;;;16.80;11.57;;;;;;;;;;5050574;28;20174;-70
2022/10/27 11:57:13;;;;;;;17.53;11.53;;;;;;;;;;5047888;28;20199;-71
2022/10/27 12:00:16;;;;;;;18.20;11.97;;;;;;;;;;5050352;28;20202;-72
2022/10/27 12:03:07;;;;;;;17.63;11.20;;;;;;;;;;5052760;28;20202;-71
2022/10/27 12:05:36;;;;;;;16.73;10.77;;;;;;;;;;5045396;28;20245;-72
2022/10/27 12:08:15;;;;;;;17.27;10.07;;;;;;;;;;5053472;28;20677;-72
2022/10/27 12:10:47;;;;;;;17.30;11.57;;;;;;;;;;5032539;28;20681;-72
2022/10/27 12:13:21;;;;;;;16.37;11.90;;;;;;;;;;5056637;28;20194;-71
2022/10/27 12:15:47;;;;;;;15.07;11.50;;;;;;;;;;5059189;28;20198;-72
2022/10/27 12:18:21;;;;;;;20.40;13.00;;;;;;;;;;5051228;28;20290;-72
2022/10/27 12:20:50;;;;;;;19.17;12.50;;;;;;;;;;5054168;28;20190;-71
2022/10/27 12:23:18;;;;;;;17.70;12.30;;;;;;;;;;5050879;28;20208;-71
2022/10/27 12:25:48;;;;;;;16.77;11.27;;;;;;;;;;5054889;28;20281;-72
2022/10/27 12:28:16;;;;;;;13.17;10.23;;;;;;;;;;5055270;28;20851;-71
2022/10/27 12:30:44;;;;;;;17.50;10.83;;;;;;;;;;5056573;28;20213;-71
2022/10/27 12:33:27;;;;;;;18.60;11.47;;;;;;;;;;5045668;28;20194;-72
2022/10/27 12:36:00;;;;;;;20.33;10.77;;;;;;;;;;5044976;28;20190;-71
2022/10/27 12:38:49;;;;;;;13.73;10.30;;;;;;;;;;5058623;28;20714;-73
2022/10/27 12:41:19;;;;;;;13.80;9.40;;;;;;;;;;5057711;28;20230;-73
2022/10/27 12:44:03;;;;;;;14.13;9.20;;;;;;;;;;5044973;28;20236;-74
2022/10/27 12:46:36;;;;;;;13.73;8.87;;;;;;;;;;5041076;28;20249;-74
2022/10/27 12:49:06;;;;;;;13.53;8.70;;;;;;;;;;5050553;28;20253;-70
2022/10/27 12:51:41;;;;;;;14.87;9.00;;;;;;;;;;5046788;28;20214;-71
2022/10/27 12:54:14;;;;;;;12.63;8.50;;;;;;;;;;5049183;28;20260;-68
2022/10/27 12:56:49;;;;;;;14.60;8.67;;;;;;;;;;5041409;28;20195;-71
2022/10/27 12:59:37;;;;;;;13.90;8.33;;;;;;;;;;5049967;28;20280;-70
2022/10/27 13:02:08;;;;;;;13.87;8.60;;;;;;;;;;5053445;28;20347;-72
2022/10/27 13:04:35;;;;;;;11.90;8.23;;;;;;;;;;5059845;28;20214;-69
2022/10/27 13:07:02;;;;;;;12.23;8.60;;;;;;;;;;5014431;28;20218;-71
2022/10/27 13:09:35;;;;;;;13.37;9.13;;;;;;;;;;5051733;28;20563;-71
2022/10/27 13:12:08;;;;;;;10.07;7.53;;;;;;;;;;5048171;28;20293;-72
2022/10/27 13:14:53;;;;;;;14.13;7.90;;;;;;;;;;5034981;28;20210;-72
2022/10/27 13:17:24;;;;;;;13.47;7.33;;;;;;;;;;5053334;28;20190;-73
2022/10/27 13:19:56;;;;;;;14.27;7.50;;;;;;;;;;5052178;28;20190;-71
2022/10/27 13:22:26;;;;;;;14.57;7.53;;;;;;;;;;5050150;28;20190;-71
2022/10/27 13:25:13;;;;;;;9.23;7.47;;;;;;;;;;5049177;28;20206;-74
2022/10/27 13:27:44;;;;;;;12.03;7.20;;;;;;;;;;5054348;28;20194;-71
2022/10/27 13:30:20;;;;;;;8.17;5.43;;;;;;;;;;5058833;28;20704;-73
2022/10/27 13:32:47;;;;;;;9.90;3.57;;;;;;;;;;5050101;28;20190;-72
2022/10/27 13:35:14;;;;;;;9.80;3.70;;;;;;;;;;5048323;28;20537;-70
2022/10/27 13:37:46;;;;;;;7.87;3.50;;;;;;;;;;5056102;28;20202;-74
2022/10/27 13:40:16;;;;;;;6.20;3.20;;;;;;;;;;5067293;28;20186;-71
2022/10/27 13:42:44;;;;;;;8.73;3.70;;;;;;;;;;5069669;28;20180;-71
2022/10/27 13:45:26;;;;;;;10.23;4.00;;;;;;;;;;5068847;28;20653;-70
2022/10/27 13:48:05;;;;;;;8.53;5.17;;;;;;;;;;5069868;28;20872;-71
2022/10/27 13:50:36;;;;;;;10.50;4.37;;;;;;;;;;5069947;28;20221;-70
2022/10/27 13:53:15;;;;;;;11.23;5.97;;;;;;;;;;5068251;28;20182;-71
2022/10/27 13:55:51;;;;;;;8.73;4.00;;;;;;;;;;5070062;28;20205;-71
2022/10/27 13:58:20;;;;;;;8.97;4.33;;;;;;;;;;5068636;28;20189;-71
2022/10/27 14:00:54;;;;;;;8.30;4.30;;;;;;;;;;5068575;28;20649;-71
2022/10/27 14:03:36;;;;;;;7.50;4.10;;;;;;;;;;5066224;28;20191;-71
2022/10/27 14:06:13;;;;;;;9.43;4.17;;;;;;;;;;5049589;28;20197;-71
2022/10/27 14:08:43;;;;;;;10.17;3.70;;;;;;;;;;5049594;28;20170;-71
2022/10/27 14:11:11;;;;;;;9.27;4.00;;;;;;;;;;5051972;28;20216;-70
2022/10/27 14:13:38;;;;;;;10.87;4.67;;;;;;;;;;5053923;28;20577;-71
2022/10/27 14:16:05;;;;;;;11.50;4.33;;;;;;;;;;5053651;28;20257;-71
2022/10/27 14:18:33;;;;;;;11.30;4.20;;;;;;;;;;5052627;28;20222;-71
2022/10/27 14:21:13;;;;;;;9.57;3.90;;;;;;;;;;5053802;28;20685;-70
2022/10/27 14:23:40;;;;;;;10.60;4.40;;;;;;;;;;5053307;28;20202;-70
2022/10/27 14:26:25;;;;;;;12.53;4.07;;;;;;;;;;5052391;28;20194;-71
2022/10/27 14:28:52;;;;;;;10.97;4.20;;;;;;;;;;5053692;28;20186;-71
2022/10/27 14:31:24;;;;;;;9.07;4.17;;;;;;;;;;5051788;28;20690;-71
2022/10/27 14:33:51;;;;;;;14.43;4.60;;;;;;;;;;5052055;28;20221;-71
2022/10/27 14:36:32;;;;;;;10.17;4.17;;;;;;;;;;5053177;28;20183;-71